Bridgeport Valley, California Weather observations

Data are for 10 minute period ending at time listed.
 Day   Time   Solar   Ave.   Ave.  Ave.  Vector  Max.   Baro.   Total    
  of    of     Rad.   Air    Rel.  Wind   Wind   Wind  Press.  Precip.   
Year   Day            Temp.  Hum.  Speed  Dir.   Gust                    
2017   (PST)  Kw/m2    F      %     mph   deg.    mph    mb.     in.     
-------------------------------------------------------------------------
  50   14:30   0.48   44.4    49    5.9   218    10.4   793.7    0.00 
  50   14:40   0.42   44.7    50    6.2   208    10.8   793.5    0.00 
  50   14:50   0.40   44.3    50    5.5   204    11.3   793.5    0.00 
  50   15:00   0.25   44.2    49    3.0   157     7.7   793.5    0.00 
  50   15:10   0.35   44.7    50    5.3   175    12.5   793.5    0.00 
  50   15:20   0.28   44.5    50    8.7   169    15.2   793.5    0.00 
  50   15:30   0.20   44.0    50    6.4   190    12.3   793.6    0.00 
  50   15:40   0.20   44.1    49    3.0   199     7.1   793.7    0.00 
  50   15:50   0.17   43.8    49    5.2   167     8.5   793.7    0.00 
  50   16:00   0.10   43.7    50    3.5   169     5.2   793.7    0.00 
  50   16:10   0.08   43.6    52    6.5   179    10.8   794.0    0.00 
  50   16:20   0.06   42.8    55    8.2   172    14.8   794.2    0.00 
  50   16:30   0.06   42.4    58    8.8   187    14.6   794.3    0.00 
  50   16:40   0.06   41.5    63    9.9   163    16.1   794.4    0.00 
  50   16:50   0.04   40.7    68    7.0   171    13.1   794.6    0.00 
  50   17:00   0.02   39.8    71    9.8   164    15.6   794.4    0.00 
  50   17:10   0.01   38.3    76   10.2   157    14.0   794.4    0.00 
  50   17:20   0.01   38.0    78    7.4   156    10.2   794.7    0.00 
  50   17:30   0.01   37.7    79    6.0   142     8.4   794.6    0.00 
  50   17:40   0.00   37.7    78    6.7   134     8.3   794.6    0.00 
  50   17:50   0.00   37.9    78    6.4   139     9.8   794.7    0.00 
  50   18:00   0.00   38.0    77   10.7   123    15.9   794.6    0.00 
  50   18:10   0.00   38.4    75   10.1   136    19.7   794.7    0.00 
  50   18:20   0.00   38.5    74    9.3   128    15.8   794.8    0.00 
  50   18:30   0.00   38.7    73    9.6   111    14.2   794.8    0.00 
  50   18:40   0.00   39.2    70    8.0   122    19.1   795.0    0.00 
  50   18:50   0.00   39.3    68    8.9   112    13.4   795.2    0.00 
  50   19:00   0.00   39.4    66    6.8   126    12.6   795.2    0.00 
  50   19:10   0.00   40.5    62    3.9   108     6.8   795.3    0.00 
  50   19:20   0.00   40.1    64    4.7   212     8.4   795.4    0.00 
  50   19:30   0.00   37.7    70    1.1   265     3.3   795.4    0.00 
  50   19:40   0.00   37.1    72    3.7    41     7.2   795.5    0.00 
  50   19:50   0.00   36.6    72    1.5   262     4.0   795.7    0.00 
  50   20:00   0.00   37.2    71    3.3    21     5.2   795.8    0.00 
  50   20:10   0.00   36.4    73    4.8    96     7.7   795.8    0.00 
  50   20:20   0.00   38.3    69    4.6   194    20.5   796.0    0.00 
  50   20:30   0.00   38.5    69    5.9   200    10.6   796.1    0.00 
  50   20:40   0.00   38.4    69    7.5   239    16.7   796.3    0.00 
  50   20:50   0.00   38.3    69    9.9   231    16.4   796.4    0.00 
  50   21:00   0.00   38.6    63    6.6   230    12.4   796.7    0.00 
  50   21:10   0.00   38.9    61    3.2   127     8.6   796.7    0.00 
  50   21:20   0.00   38.0    64    1.5   103     5.6   796.8    0.00 
  50   21:30   0.00   36.9    71    4.3    69     6.0   797.0    0.00 
  50   21:40   0.00   37.1    64    2.5   156     4.2   797.1    0.00 
  50   21:50   0.00   39.8    58    4.5   120     8.2   797.3    0.00 
  50   22:00   0.00   38.7    60    2.9   116     4.7   797.4    0.00 
  50   22:10   0.00   38.1    64    4.9   101     7.4   797.5    0.00 
  50   22:20   0.00   35.8    73    5.1    61     7.4   797.4    0.00 
  50   22:30   0.00   37.0    67    4.5    13     8.6   797.4    0.00 
  50   22:40   0.00   37.4    65    6.7    19    11.3   797.6    0.00 
  50   22:50   0.00   36.3    68    2.9    25     5.6   797.9    0.00 
  50   23:00   0.00   35.4    72    5.8    80    10.0   797.6    0.00 
  50   23:10   0.00   37.2    66    7.0   108    10.4   797.7    0.00 
  50   23:20   0.00   38.6    62    4.6   135    10.9   797.7    0.00 
  50   23:30   0.00   37.5    64    4.4   102     6.4   797.7    0.00 
  50   23:40   0.00   35.0    71    4.7    41     7.8   798.0    0.00 
  50   23:50   0.00   35.5    72    4.5     4     7.4   798.0    0.00 
  51    0:00   0.00   38.1    65    3.3   119    10.7   797.8    0.00 
  51    0:10   0.00   38.2    68    3.8   195     8.2   797.5    0.00 
  51    0:20   0.00   36.5    72    2.3   182     6.4   797.6    0.00 
  51    0:30   0.00   36.2    74    7.2   135    11.2   797.2    0.00 
  51    0:40   0.00   35.7    79    5.3   163     8.8   797.2    0.00 
  51    0:50   0.00   36.0    79    2.9   232     7.5   797.2    0.00 
  51    1:00   0.00   36.8    78    6.3   146    11.2   797.3    0.00 
  51    1:10   0.00   37.6    79    5.9   202    10.7   797.5    0.00 
  51    1:20   0.00   36.2    76    3.9   302     7.4   797.5    0.00 
  51    1:30   0.00   37.7    77    3.9   258     7.0   797.7    0.00 
  51    1:40   0.00   37.1    81    2.5   270     5.1   797.8    0.01 
  51    1:50   0.00   37.3    83    2.0   166     4.7   797.6    0.01 
  51    2:00   0.00   36.5    86    2.4   281     5.2   797.5    0.00 
  51    2:10   0.00   35.2    87    4.4   298     6.5   797.5    0.00 
  51    2:20   0.00   34.7    90    4.7   313     6.6   797.5    0.00 
  51    2:30   0.00   34.2    92    3.7   357     5.1   797.4    0.00 
  51    2:40   0.00   33.6    92    4.4    41     6.4   797.1    0.01 
  51    2:50   0.00   33.5    93    2.8    30     4.7   797.1    0.00 
  51    3:00   0.00   33.8    93    1.8   215     4.5   796.9    0.00 
  51    3:10   0.00   33.8    93    4.6   172     7.2   796.8    0.00 
  51    3:20   0.00   33.9    93    4.5   156     6.1   796.3    0.01 
  51    3:30   0.00   34.3    94    5.3   145     7.8   796.0    0.00 
  51    3:40   0.00   35.1    92    1.3   196     4.7   795.7    0.00 
  51    3:50   0.00   36.3    89    2.8   279     6.6   796.0    0.00 
  51    4:00   0.00   36.6    86    4.0   256     9.3   796.3    0.00 
  51    4:10   0.00   36.9    86    4.5   209     9.2   796.6    0.01 
  51    4:20   0.00   37.6    84    4.1   145     9.3   796.9    0.00 
  51    4:30   0.00   37.2    85    5.3   154     9.1   796.9    0.01 
  51    4:40   0.00   35.6    90    4.5   181     6.3   797.1    0.01 
  51    4:50   0.00   35.0    92    4.8   207     6.6   797.4    0.02 
  51    5:00   0.00   35.0    93    3.6   218     4.7   797.2    0.01 
  51    5:10   0.00   34.9    93    2.5   218     4.2   797.1    0.02 
  51    5:20   0.00   34.8    93    2.4   260     4.5   797.0    0.02 
  51    5:30   0.00   34.6    93    3.4   278     5.0   797.3    0.01 
  51    5:40   0.00   34.3    93    5.3   291    14.7   797.5    0.00 
  51    5:50   0.00   34.9    92    3.5   151    16.4   797.0    0.01 
  51    6:00   0.00   35.8    89   11.7   178    18.5   796.6    0.01 
  51    6:10   0.00   35.0    89    5.5   209    14.3   796.9    0.01 
  51    6:20   0.00   34.3    91    3.7   251     6.6   797.2    0.00 
  51    6:30   0.00   34.6    91    1.6   196     5.5   796.6    0.02 
  51    6:40   0.00   34.5    92    9.4   146    14.0   796.4    0.00 
  51    6:50   0.00   34.5    92    9.6   148    16.9   796.4    0.01 
  51    7:00   0.00   33.7    92    4.4   244    16.1   796.8    0.00 
  51    7:10   0.01   34.1    93    3.0   299     6.9   796.9    0.01 
  51    7:20   0.01   35.2    90    3.8   187     8.5   796.8    0.00 
  51    7:30   0.01   35.5    88    4.0   189    13.2   797.4    0.02 
  51    7:40   0.01   35.0    88    1.4   273     6.5   797.3    0.03 
  51    7:50   0.02   34.7    90    3.7   169     9.9   797.3    0.03 
  51    8:00   0.02   34.5    90    4.1   216     9.5   797.3    0.02 
  51    8:10   0.02   34.7    91    5.2   230     8.8   797.4    0.00 
  51    8:20   0.02   35.3    89    5.4   173     9.4   797.6    0.01 
  51    8:30   0.03   35.4    89    4.9   153     8.6   797.6    0.02 
  51    8:40   0.08   35.6    89    8.7   157    18.1   797.5    0.02 
  51    8:50   0.18   36.1    90    6.3   167     9.8   797.6    0.01 
  51    9:00   0.14   35.3    91    5.9   231    16.7   797.7    0.01 
  51    9:10   0.07   35.9    90    3.4   230     9.4   797.7    0.00 
  51    9:20   0.08   36.8    88    7.3   148    12.1   797.7    0.01 
  51    9:30   0.16   37.2    89    6.9   174    10.1   797.4    0.02 
  51    9:40   0.15   36.5    91    4.4   253     8.1   797.9    0.00 
  51    9:50   0.08   36.6    91    5.5   318     8.6   798.5    0.01 
  51   10:00   0.09   36.0    92    6.7     8     9.3   798.2    0.02 
  51   10:10   0.07   36.1    93    4.7   354     8.3   798.1    0.01 
  51   10:20   0.11   36.6    93    4.4    74     8.6   797.8    0.02 
  51   10:30   0.12   36.9    91    6.9   182     9.5   797.8    0.01 
  51   10:40   0.13   36.7    90    5.1   233     9.3   797.6    0.02 
  51   10:50   0.06   35.5    92    7.3   276    11.8   797.9    0.01 
  51   11:00   0.07   35.3    93    6.2   298     8.6   798.2    0.02 
  51   11:10   0.10   35.7    93    5.3   311     8.0   798.3    0.02 
  51   11:20   0.15   36.0    94    3.5   331     5.4   797.9    0.02 
  51   11:30   0.10   36.2    93    1.8   312     4.8   798.1    0.01 
  51   11:40   0.08   36.1    93    3.6   332     6.6   798.1    0.02 
  51   11:50   0.10   36.2    93    1.0   347     3.7   798.0    0.01 
  51   12:00   0.10   36.2    93    2.9   328     4.7   798.0    0.01 
  51   12:10   0.14   36.4    93    3.2   351     6.0   797.8    0.01 
  51   12:20   0.18   36.7    93    3.4   345     5.6   797.6    0.01 
  51   12:30   0.14   37.1    93    3.9   343     6.5   797.4    0.01 
  51   12:40   0.13   37.4    92    4.3   332     7.4   797.5    0.00 
  51   12:50   0.11   37.5    92    4.9   336     7.7   797.7    0.02 
  51   13:00   0.13   37.5    91    6.5   327     9.6   797.9    0.00 
  51   13:10   0.16   37.7    91    4.9    38     6.8   797.7    0.02 
  51   13:20   0.13   38.3    90    4.9    18     8.7   797.7    0.00 
  51   13:30   0.09   38.6    89    2.6    44     5.1   797.9    0.01 
  51   13:40   0.13   39.0    89    3.2    52     5.3   797.8    0.01 
  51   13:50   0.16   39.1    88    2.8   110     6.1   797.6    0.00 
  51   14:00   0.18   39.6    87    1.7   153     5.2   797.6    0.00 
  51   14:10   0.20   39.6    89    3.6   171     6.2   797.3    0.01 
  51   14:20   0.16   39.8    92    4.9   205     6.9   797.4    0.00 

Return to Bridgeport Valley graphs page.


Western Regional Climate Center,wrcc@dri.edu